Terminal Aerodrome Forecast
Issued by NWS Northern Indiana

Home | Current Version | Previous Version | Graphics & Text | Print | Product List | Glossary On
Versions: 1 2 3 4 5 6 7 8 9 10 11 12 13 14 15 16 17 18 19 20 21 22 23
532
FTUS43 KIWX 220906 AAA
TAFFWA
TAF AMD
KFWA 220906Z 2209/2306 25010KT P6SM -SHRA VCTS SCT030 BKN100CB
      WS020/24040KT
     FM221200 23011KT 6SM -SHRA BR OVC035
     FM221500 24009KT P6SM VCSH BKN025
     FM221800 25012G18KT P6SM BKN030
     FM222200 30011G17KT P6SM BKN035=

USA.gov is the U.S. government's official web portal to all federal, state and local government web resources and services.